sensor_id;sensor_type;location;lat;lon;timestamp;temperature;humidity
33903;DHT22;20194;50.950;5.346;2023-05-02T00:01:06;13.40;51.00
33903;DHT22;20194;50.950;5.346;2023-05-02T00:03:32;13.50;50.00
33903;DHT22;20194;50.950;5.346;2023-05-02T00:05:59;13.60;49.30
33903;DHT22;20194;50.950;5.346;2023-05-02T00:08:25;13.30;50.50
33903;DHT22;20194;50.950;5.346;2023-05-02T00:10:50;13.20;52.50
33903;DHT22;20194;50.950;5.346;2023-05-02T00:13:16;13.10;54.10
33903;DHT22;20194;50.950;5.346;2023-05-02T00:15:42;13.20;52.00
33903;DHT22;20194;50.950;5.346;2023-05-02T00:18:08;13.30;51.90
33903;DHT22;20194;50.950;5.346;2023-05-02T00:20:35;13.40;51.40
33903;DHT22;20194;50.950;5.346;2023-05-02T00:23:00;13.50;49.40
33903;DHT22;20194;50.950;5.346;2023-05-02T00:25:26;13.40;50.30
33903;DHT22;20194;50.950;5.346;2023-05-02T00:27:51;13.40;50.30
33903;DHT22;20194;50.950;5.346;2023-05-02T00:30:17;13.40;52.00
33903;DHT22;20194;50.950;5.346;2023-05-02T00:32:44;13.00;53.60
33903;DHT22;20194;50.950;5.346;2023-05-02T00:35:10;12.90;55.70
33903;DHT22;20194;50.950;5.346;2023-05-02T00:37:36;12.80;56.60
33903;DHT22;20194;50.950;5.346;2023-05-02T00:40:02;13.10;56.30
33903;DHT22;20194;50.950;5.346;2023-05-02T00:42:28;13.20;55.20
33903;DHT22;20194;50.950;5.346;2023-05-02T00:44:56;13.40;52.30
33903;DHT22;20194;50.950;5.346;2023-05-02T00:47:22;13.40;52.00
33903;DHT22;20194;50.950;5.346;2023-05-02T00:49:49;13.30;50.90
33903;DHT22;20194;50.950;5.346;2023-05-02T00:52:15;13.30;52.70
33903;DHT22;20194;50.950;5.346;2023-05-02T00:54:40;13.40;50.30
33903;DHT22;20194;50.950;5.346;2023-05-02T00:57:07;13.50;49.00
33903;DHT22;20194;50.950;5.346;2023-05-02T00:59:36;13.60;48.50
33903;DHT22;20194;50.950;5.346;2023-05-02T01:13:09;13.00;53.50
33903;DHT22;20194;50.950;5.346;2023-05-02T01:15:38;12.90;53.70
33903;DHT22;20194;50.950;5.346;2023-05-02T01:18:11;12.90;55.90
33903;DHT22;20194;50.950;5.346;2023-05-02T01:20:41;13.00;54.70
33903;DHT22;20194;50.950;5.346;2023-05-02T01:23:25;13.10;53.60
33903;DHT22;20194;50.950;5.346;2023-05-02T01:31:18;13.00;53.10
33903;DHT22;20194;50.950;5.346;2023-05-02T01:33:45;13.20;51.20
33903;DHT22;20194;50.950;5.346;2023-05-02T01:36:13;13.20;50.80
33903;DHT22;20194;50.950;5.346;2023-05-02T01:38:41;13.20;50.50
33903;DHT22;20194;50.950;5.346;2023-05-02T01:41:09;13.30;50.10
33903;DHT22;20194;50.950;5.346;2023-05-02T01:43:37;13.40;47.20
33903;DHT22;20194;50.950;5.346;2023-05-02T01:46:05;13.50;46.50
33903;DHT22;20194;50.950;5.346;2023-05-02T01:48:32;13.70;43.60
33903;DHT22;20194;50.950;5.346;2023-05-02T01:50:58;13.60;44.20
33903;DHT22;20194;50.950;5.346;2023-05-02T01:53:27;13.70;42.00
33903;DHT22;20194;50.950;5.346;2023-05-02T01:55:54;13.70;42.90
33903;DHT22;20194;50.950;5.346;2023-05-02T01:58:21;13.80;39.50
33903;DHT22;20194;50.950;5.346;2023-05-02T02:00:50;13.60;40.40
33903;DHT22;20194;50.950;5.346;2023-05-02T02:03:17;13.70;42.30
33903;DHT22;20194;50.950;5.346;2023-05-02T02:05:44;13.80;41.20
33903;DHT22;20194;50.950;5.346;2023-05-02T02:08:14;14.00;37.90
33903;DHT22;20194;50.950;5.346;2023-05-02T02:10:42;13.90;38.20
33903;DHT22;20194;50.950;5.346;2023-05-02T02:13:26;14.00;38.10
33903;DHT22;20194;50.950;5.346;2023-05-02T02:15:58;13.90;36.80
33903;DHT22;20194;50.950;5.346;2023-05-02T02:18:24;13.70;42.50
33903;DHT22;20194;50.950;5.346;2023-05-02T02:20:53;13.60;44.20
33903;DHT22;20194;50.950;5.346;2023-05-02T02:23:22;13.60;43.80
33903;DHT22;20194;50.950;5.346;2023-05-02T02:25:51;13.70;41.10
33903;DHT22;20194;50.950;5.346;2023-05-02T02:28:18;13.60;45.10
33903;DHT22;20194;50.950;5.346;2023-05-02T02:30:44;13.70;43.60
33903;DHT22;20194;50.950;5.346;2023-05-02T02:33:10;13.90;41.70
33903;DHT22;20194;50.950;5.346;2023-05-02T02:35:46;13.80;40.10
33903;DHT22;20194;50.950;5.346;2023-05-02T02:38:22;13.60;44.50
33903;DHT22;20194;50.950;5.346;2023-05-02T02:40:59;13.80;41.40
33903;DHT22;20194;50.950;5.346;2023-05-02T02:43:35;13.50;46.30
33903;DHT22;20194;50.950;5.346;2023-05-02T02:48:38;13.80;42.30
33903;DHT22;20194;50.950;5.346;2023-05-02T02:51:13;13.60;44.20
33903;DHT22;20194;50.950;5.346;2023-05-02T02:56:41;13.50;46.40
33903;DHT22;20194;50.950;5.346;2023-05-02T02:59:31;13.60;46.90
33903;DHT22;20194;50.950;5.346;2023-05-02T03:02:07;13.80;41.60
33903;DHT22;20194;50.950;5.346;2023-05-02T03:04:37;13.90;38.10
33903;DHT22;20194;50.950;5.346;2023-05-02T03:07:03;13.90;35.60
33903;DHT22;20194;50.950;5.346;2023-05-02T03:09:43;14.00;33.00
33903;DHT22;20194;50.950;5.346;2023-05-02T03:12:09;14.00;29.40
33903;DHT22;20194;50.950;5.346;2023-05-02T03:14:36;13.80;32.70
33903;DHT22;20194;50.950;5.346;2023-05-02T03:17:02;14.00;31.70
33903;DHT22;20194;50.950;5.346;2023-05-02T03:19:28;13.90;29.20
33903;DHT22;20194;50.950;5.346;2023-05-02T03:21:54;13.70;30.70
33903;DHT22;20194;50.950;5.346;2023-05-02T03:24:20;13.80;32.30
33903;DHT22;20194;50.950;5.346;2023-05-02T03:26:46;13.60;33.70
33903;DHT22;20194;50.950;5.346;2023-05-02T03:29:13;13.50;33.50
33903;DHT22;20194;50.950;5.346;2023-05-02T03:31:39;13.30;41.70
33903;DHT22;20194;50.950;5.346;2023-05-02T03:34:04;13.30;43.10
33903;DHT22;20194;50.950;5.346;2023-05-02T03:36:30;13.30;44.20
33903;DHT22;20194;50.950;5.346;2023-05-02T03:38:56;13.40;44.50
33903;DHT22;20194;50.950;5.346;2023-05-02T03:41:22;13.40;42.70
33903;DHT22;20194;50.950;5.346;2023-05-02T03:43:49;13.30;45.20
33903;DHT22;20194;50.950;5.346;2023-05-02T03:46:15;13.30;43.90
33903;DHT22;20194;50.950;5.346;2023-05-02T03:48:41;13.20;47.20
33903;DHT22;20194;50.950;5.346;2023-05-02T03:51:07;13.10;45.10
33903;DHT22;20194;50.950;5.346;2023-05-02T03:53:34;13.00;48.50
33903;DHT22;20194;50.950;5.346;2023-05-02T03:56:00;13.10;48.50
33903;DHT22;20194;50.950;5.346;2023-05-02T03:58:26;13.10;48.30
33903;DHT22;20194;50.950;5.346;2023-05-02T04:00:52;13.10;47.00
33903;DHT22;20194;50.950;5.346;2023-05-02T04:03:19;13.20;45.80
33903;DHT22;20194;50.950;5.346;2023-05-02T04:05:44;12.80;48.50
33903;DHT22;20194;50.950;5.346;2023-05-02T04:08:10;12.70;52.10
33903;DHT22;20194;50.950;5.346;2023-05-02T04:10:36;12.60;51.60
33903;DHT22;20194;50.950;5.346;2023-05-02T04:13:02;12.60;51.90
33903;DHT22;20194;50.950;5.346;2023-05-02T04:15:29;12.60;52.40
33903;DHT22;20194;50.950;5.346;2023-05-02T04:17:57;12.50;51.40
33903;DHT22;20194;50.950;5.346;2023-05-02T04:20:23;12.40;51.00
33903;DHT22;20194;50.950;5.346;2023-05-02T04:22:49;12.40;50.70
33903;DHT22;20194;50.950;5.346;2023-05-02T04:25:15;12.20;52.90
33903;DHT22;20194;50.950;5.346;2023-05-02T04:27:42;12.20;52.80
33903;DHT22;20194;50.950;5.346;2023-05-02T04:30:08;12.40;52.70
33903;DHT22;20194;50.950;5.346;2023-05-02T04:32:35;12.40;50.50
33903;DHT22;20194;50.950;5.346;2023-05-02T04:35:02;12.50;48.10
33903;DHT22;20194;50.950;5.346;2023-05-02T04:37:28;12.50;46.90
33903;DHT22;20194;50.950;5.346;2023-05-02T04:39:53;12.50;47.70
33903;DHT22;20194;50.950;5.346;2023-05-02T04:42:19;12.50;47.80
33903;DHT22;20194;50.950;5.346;2023-05-02T04:44:45;12.60;47.40
33903;DHT22;20194;50.950;5.346;2023-05-02T04:47:10;12.50;49.30
33903;DHT22;20194;50.950;5.346;2023-05-02T04:49:36;12.60;47.20
33903;DHT22;20194;50.950;5.346;2023-05-02T04:52:02;12.60;47.20
33903;DHT22;20194;50.950;5.346;2023-05-02T04:54:27;12.60;45.70
33903;DHT22;20194;50.950;5.346;2023-05-02T04:56:53;12.60;46.20
33903;DHT22;20194;50.950;5.346;2023-05-02T04:59:19;12.70;46.60
33903;DHT22;20194;50.950;5.346;2023-05-02T05:01:45;12.80;44.90
33903;DHT22;20194;50.950;5.346;2023-05-02T05:04:11;12.90;44.10
33903;DHT22;20194;50.950;5.346;2023-05-02T05:06:37;13.00;41.40
33903;DHT22;20194;50.950;5.346;2023-05-02T05:09:02;12.90;41.80
33903;DHT22;20194;50.950;5.346;2023-05-02T05:11:28;13.00;41.90
33903;DHT22;20194;50.950;5.346;2023-05-02T05:13:55;13.00;41.30
33903;DHT22;20194;50.950;5.346;2023-05-02T05:16:21;13.10;40.80
33903;DHT22;20194;50.950;5.346;2023-05-02T05:18:47;13.10;42.10
33903;DHT22;20194;50.950;5.346;2023-05-02T05:21:13;13.10;37.30
33903;DHT22;20194;50.950;5.346;2023-05-02T05:23:39;12.90;44.10
33903;DHT22;20194;50.950;5.346;2023-05-02T05:26:14;13.00;42.30
33903;DHT22;20194;50.950;5.346;2023-05-02T05:28:40;13.10;41.10
33903;DHT22;20194;50.950;5.346;2023-05-02T05:31:07;13.30;37.70
33903;DHT22;20194;50.950;5.346;2023-05-02T05:33:34;13.30;37.40
33903;DHT22;20194;50.950;5.346;2023-05-02T05:36:06;13.20;37.40
33903;DHT22;20194;50.950;5.346;2023-05-02T05:38:32;13.20;39.90
33903;DHT22;20194;50.950;5.346;2023-05-02T05:40:58;13.20;39.80
33903;DHT22;20194;50.950;5.346;2023-05-02T05:43:24;13.40;37.10
33903;DHT22;20194;50.950;5.346;2023-05-02T05:45:53;13.10;38.20
33903;DHT22;20194;50.950;5.346;2023-05-02T05:48:19;13.10;40.00
33903;DHT22;20194;50.950;5.346;2023-05-02T05:50:45;13.30;38.80
33903;DHT22;20194;50.950;5.346;2023-05-02T05:53:11;13.30;37.70
33903;DHT22;20194;50.950;5.346;2023-05-02T05:55:37;13.50;35.50
33903;DHT22;20194;50.950;5.346;2023-05-02T05:58:04;13.50;33.70
33903;DHT22;20194;50.950;5.346;2023-05-02T06:00:30;13.50;34.70
33903;DHT22;20194;50.950;5.346;2023-05-02T06:02:55;13.30;33.50
33903;DHT22;20194;50.950;5.346;2023-05-02T06:05:21;13.40;34.10
33903;DHT22;20194;50.950;5.346;2023-05-02T06:07:47;13.20;33.30
33903;DHT22;20194;50.950;5.346;2023-05-02T06:10:12;12.90;37.90
33903;DHT22;20194;50.950;5.346;2023-05-02T06:12:38;12.90;39.40
33903;DHT22;20194;50.950;5.346;2023-05-02T06:15:04;12.80;37.50
33903;DHT22;20194;50.950;5.346;2023-05-02T06:17:30;12.80;38.30
33903;DHT22;20194;50.950;5.346;2023-05-02T06:19:55;12.90;38.10
33903;DHT22;20194;50.950;5.346;2023-05-02T06:22:21;13.00;35.70
33903;DHT22;20194;50.950;5.346;2023-05-02T06:24:47;13.10;34.20
33903;DHT22;20194;50.950;5.346;2023-05-02T06:27:12;13.10;33.60
33903;DHT22;20194;50.950;5.346;2023-05-02T06:29:38;13.00;32.70
33903;DHT22;20194;50.950;5.346;2023-05-02T06:32:04;13.00;32.90
33903;DHT22;20194;50.950;5.346;2023-05-02T06:34:33;13.00;32.60
33903;DHT22;20194;50.950;5.346;2023-05-02T06:36:59;13.10;31.30
33903;DHT22;20194;50.950;5.346;2023-05-02T06:39:25;13.10;30.60
33903;DHT22;20194;50.950;5.346;2023-05-02T06:41:50;12.80;30.30
33903;DHT22;20194;50.950;5.346;2023-05-02T06:44:16;12.40;28.20
33903;DHT22;20194;50.950;5.346;2023-05-02T06:46:42;12.40;32.80
33903;DHT22;20194;50.950;5.346;2023-05-02T06:49:08;12.50;32.00
33903;DHT22;20194;50.950;5.346;2023-05-02T06:51:33;12.50;27.90
33903;DHT22;20194;50.950;5.346;2023-05-02T06:53:59;12.60;25.10
33903;DHT22;20194;50.950;5.346;2023-05-02T06:56:25;12.90;21.00
33903;DHT22;20194;50.950;5.346;2023-05-02T06:58:51;12.90;15.70
33903;DHT22;20194;50.950;5.346;2023-05-02T07:01:17;12.90;14.50
33903;DHT22;20194;50.950;5.346;2023-05-02T07:03:45;13.00;15.80
33903;DHT22;20194;50.950;5.346;2023-05-02T07:06:11;13.00;12.70
33903;DHT22;20194;50.950;5.346;2023-05-02T07:08:36;13.10;10.10
33903;DHT22;20194;50.950;5.346;2023-05-02T07:11:03;13.10;11.70
33903;DHT22;20194;50.950;5.346;2023-05-02T07:13:29;13.20;8.30
33903;DHT22;20194;50.950;5.346;2023-05-02T07:15:55;13.30;8.00
33903;DHT22;20194;50.950;5.346;2023-05-02T07:18:21;13.40;4.20
33903;DHT22;20194;50.950;5.346;2023-05-02T07:20:47;13.20;1.50
33903;DHT22;20194;50.950;5.346;2023-05-02T07:23:13;13.20;1.20
33903;DHT22;20194;50.950;5.346;2023-05-02T07:25:38;13.30;4.00
33903;DHT22;20194;50.950;5.346;2023-05-02T07:28:04;13.50;1.00
33903;DHT22;20194;50.950;5.346;2023-05-02T07:30:30;13.30;1.00
33903;DHT22;20194;50.950;5.346;2023-05-02T07:32:56;13.40;1.00
33903;DHT22;20194;50.950;5.346;2023-05-02T07:35:21;13.50;1.00
33903;DHT22;20194;50.950;5.346;2023-05-02T07:37:47;13.50;1.00
33903;DHT22;20194;50.950;5.346;2023-05-02T07:40:13;13.70;1.00
33903;DHT22;20194;50.950;5.346;2023-05-02T07:42:39;14.00;1.00
33903;DHT22;20194;50.950;5.346;2023-05-02T07:45:09;14.10;1.00
33903;DHT22;20194;50.950;5.346;2023-05-02T07:47:35;14.30;1.00
33903;DHT22;20194;50.950;5.346;2023-05-02T07:50:01;14.70;1.00
33903;DHT22;20194;50.950;5.346;2023-05-02T07:52:29;15.10;1.00
33903;DHT22;20194;50.950;5.346;2023-05-02T07:54:56;15.50;1.00
33903;DHT22;20194;50.950;5.346;2023-05-02T07:57:22;16.00;1.00
33903;DHT22;20194;50.950;5.346;2023-05-02T07:59:48;16.10;1.00
33903;DHT22;20194;50.950;5.346;2023-05-02T08:02:14;16.40;1.00
33903;DHT22;20194;50.950;5.346;2023-05-02T08:04:42;16.70;1.00
33903;DHT22;20194;50.950;5.346;2023-05-02T08:07:07;16.30;1.00
33903;DHT22;20194;50.950;5.346;2023-05-02T08:09:33;16.00;1.00
33903;DHT22;20194;50.950;5.346;2023-05-02T08:11:59;15.90;1.00
33903;DHT22;20194;50.950;5.346;2023-05-02T08:14:27;15.60;1.00
33903;DHT22;20194;50.950;5.346;2023-05-02T08:16:52;15.30;1.00
33903;DHT22;20194;50.950;5.346;2023-05-02T08:19:18;15.20;1.00
33903;DHT22;20194;50.950;5.346;2023-05-02T08:21:44;15.10;1.00
33903;DHT22;20194;50.950;5.346;2023-05-02T08:24:10;15.30;1.00
33903;DHT22;20194;50.950;5.346;2023-05-02T08:26:36;15.60;1.00
33903;DHT22;20194;50.950;5.346;2023-05-02T08:29:01;15.90;1.00
33903;DHT22;20194;50.950;5.346;2023-05-02T08:31:29;16.30;1.00
33903;DHT22;20194;50.950;5.346;2023-05-02T08:33:55;16.50;1.00
33903;DHT22;20194;50.950;5.346;2023-05-02T08:36:21;16.50;1.00
33903;DHT22;20194;50.950;5.346;2023-05-02T08:38:47;16.60;1.00
33903;DHT22;20194;50.950;5.346;2023-05-02T08:41:17;16.60;1.00
33903;DHT22;20194;50.950;5.346;2023-05-02T08:43:45;16.70;1.00
33903;DHT22;20194;50.950;5.346;2023-05-02T08:46:12;16.60;1.00
33903;DHT22;20194;50.950;5.346;2023-05-02T08:48:43;16.50;1.00
33903;DHT22;20194;50.950;5.346;2023-05-02T08:51:11;16.50;1.00
33903;DHT22;20194;50.950;5.346;2023-05-02T08:53:38;16.50;1.00
33903;DHT22;20194;50.950;5.346;2023-05-02T08:56:06;16.40;1.00
33903;DHT22;20194;50.950;5.346;2023-05-02T08:58:32;16.80;1.00
33903;DHT22;20194;50.950;5.346;2023-05-02T09:01:06;16.80;1.00
33903;DHT22;20194;50.950;5.346;2023-05-02T09:03:34;16.70;1.00
33903;DHT22;20194;50.950;5.346;2023-05-02T09:06:09;16.80;1.00
33903;DHT22;20194;50.950;5.346;2023-05-02T09:08:36;16.80;1.00
33903;DHT22;20194;50.950;5.346;2023-05-02T09:11:02;16.70;1.00
33903;DHT22;20194;50.950;5.346;2023-05-02T09:16:08;16.90;1.00
33903;DHT22;20194;50.950;5.346;2023-05-02T09:18:38;16.70;1.00
33903;DHT22;20194;50.950;5.346;2023-05-02T09:21:07;16.90;1.00
33903;DHT22;20194;50.950;5.346;2023-05-02T09:23:48;17.40;1.00
33903;DHT22;20194;50.950;5.346;2023-05-02T09:26:28;17.70;99.90
33903;DHT22;20194;50.950;5.346;2023-05-02T09:28:57;17.50;99.90
33903;DHT22;20194;50.950;5.346;2023-05-02T09:31:30;17.30;1.00
33903;DHT22;20194;50.950;5.346;2023-05-02T09:34:08;16.90;99.90
33903;DHT22;20194;50.950;5.346;2023-05-02T09:36:45;16.90;99.90
33903;DHT22;20194;50.950;5.346;2023-05-02T09:39:15;17.00;99.90
33903;DHT22;20194;50.950;5.346;2023-05-02T09:41:42;17.30;1.00
33903;DHT22;20194;50.950;5.346;2023-05-02T09:44:09;17.40;99.90
33903;DHT22;20194;50.950;5.346;2023-05-02T09:46:43;17.40;99.90
33903;DHT22;20194;50.950;5.346;2023-05-02T09:49:09;17.50;99.90
33903;DHT22;20194;50.950;5.346;2023-05-02T09:51:35;17.50;99.90
33903;DHT22;20194;50.950;5.346;2023-05-02T09:54:01;17.40;99.90
33903;DHT22;20194;50.950;5.346;2023-05-02T09:56:27;17.10;99.90
33903;DHT22;20194;50.950;5.346;2023-05-02T09:59:15;17.30;99.90
33903;DHT22;20194;50.950;5.346;2023-05-02T10:01:41;17.70;99.90
33903;DHT22;20194;50.950;5.346;2023-05-02T10:04:12;17.80;99.90
33903;DHT22;20194;50.950;5.346;2023-05-02T10:06:44;17.90;99.90
33903;DHT22;20194;50.950;5.346;2023-05-02T10:09:13;18.00;99.90
33903;DHT22;20194;50.950;5.346;2023-05-02T10:11:41;18.10;91.10
33903;DHT22;20194;50.950;5.346;2023-05-02T10:14:09;18.10;99.90
33903;DHT22;20194;50.950;5.346;2023-05-02T10:16:45;17.90;99.90
33903;DHT22;20194;50.950;5.346;2023-05-02T10:19:13;17.90;99.90
33903;DHT22;20194;50.950;5.346;2023-05-02T10:21:42;18.10;99.90
33903;DHT22;20194;50.950;5.346;2023-05-02T10:24:08;18.20;99.90
33903;DHT22;20194;50.950;5.346;2023-05-02T10:26:35;18.30;99.90
33903;DHT22;20194;50.950;5.346;2023-05-02T10:29:01;18.60;1.00
33903;DHT22;20194;50.950;5.346;2023-05-02T10:31:30;18.70;1.00
33903;DHT22;20194;50.950;5.346;2023-05-02T10:33:58;18.90;99.90
33903;DHT22;20194;50.950;5.346;2023-05-02T10:36:26;19.10;99.90
33903;DHT22;20194;50.950;5.346;2023-05-02T10:38:53;19.10;99.90
33903;DHT22;20194;50.950;5.346;2023-05-02T10:41:23;19.00;99.90
33903;DHT22;20194;50.950;5.346;2023-05-02T10:43:52;19.40;1.00
33903;DHT22;20194;50.950;5.346;2023-05-02T10:46:38;19.70;99.90
33903;DHT22;20194;50.950;5.346;2023-05-02T10:49:10;19.50;1.00
33903;DHT22;20194;50.950;5.346;2023-05-02T10:51:39;19.60;99.90
33903;DHT22;20194;50.950;5.346;2023-05-02T10:54:22;18.80;99.90
33903;DHT22;20194;50.950;5.346;2023-05-02T10:57:04;18.70;99.90
33903;DHT22;20194;50.950;5.346;2023-05-02T10:59:40;18.40;1.30
33903;DHT22;20194;50.950;5.346;2023-05-02T11:05:06;18.90;1.00
33903;DHT22;20194;50.950;5.346;2023-05-02T11:07:33;18.50;1.00
33903;DHT22;20194;50.950;5.346;2023-05-02T11:12:50;18.30;1.00
33903;DHT22;20194;50.950;5.346;2023-05-02T11:18:03;18.60;99.90
33903;DHT22;20194;50.950;5.346;2023-05-02T11:20:32;18.90;1.00
33903;DHT22;20194;50.950;5.346;2023-05-02T11:23:19;19.00;1.00
33903;DHT22;20194;50.950;5.346;2023-05-02T11:25:54;18.70;1.00
33903;DHT22;20194;50.950;5.346;2023-05-02T11:31:02;19.00;1.00
33903;DHT22;20194;50.950;5.346;2023-05-02T11:33:28;19.00;1.00
33903;DHT22;20194;50.950;5.346;2023-05-02T11:35:54;19.00;1.00
33903;DHT22;20194;50.950;5.346;2023-05-02T11:38:24;18.60;99.90
33903;DHT22;20194;50.950;5.346;2023-05-02T11:40:59;18.50;1.00
33903;DHT22;20194;50.950;5.346;2023-05-02T11:43:26;18.20;39.40
33903;DHT22;20194;50.950;5.346;2023-05-02T11:45:54;18.20;1.00
33903;DHT22;20194;50.950;5.346;2023-05-02T11:48:21;18.20;12.30
33903;DHT22;20194;50.950;5.346;2023-05-02T11:50:51;18.00;99.90
33903;DHT22;20194;50.950;5.346;2023-05-02T11:53:20;18.00;99.90
33903;DHT22;20194;50.950;5.346;2023-05-02T11:55:54;18.10;99.90
33903;DHT22;20194;50.950;5.346;2023-05-02T11:58:24;18.50;1.00
33903;DHT22;20194;50.950;5.346;2023-05-02T12:00:51;18.90;1.00
33903;DHT22;20194;50.950;5.346;2023-05-02T12:03:30;19.00;1.00
33903;DHT22;20194;50.950;5.346;2023-05-02T12:05:57;18.80;1.00
33903;DHT22;20194;50.950;5.346;2023-05-02T12:08:32;18.80;99.90
33903;DHT22;20194;50.950;5.346;2023-05-02T12:10:58;18.90;1.00
33903;DHT22;20194;50.950;5.346;2023-05-02T12:13:25;18.70;1.00
33903;DHT22;20194;50.950;5.346;2023-05-02T12:15:52;18.50;1.00
33903;DHT22;20194;50.950;5.346;2023-05-02T12:18:19;18.70;1.00
33903;DHT22;20194;50.950;5.346;2023-05-02T12:20:50;19.00;99.90
33903;DHT22;20194;50.950;5.346;2023-05-02T12:23:20;19.10;17.20
33903;DHT22;20194;50.950;5.346;2023-05-02T12:25:46;19.20;99.90
33903;DHT22;20194;50.950;5.346;2023-05-02T12:28:15;19.40;1.00
33903;DHT22;20194;50.950;5.346;2023-05-02T12:30:44;19.00;99.90
33903;DHT22;20194;50.950;5.346;2023-05-02T12:33:10;18.90;27.70
33903;DHT22;20194;50.950;5.346;2023-05-02T12:35:36;18.70;99.90
33903;DHT22;20194;50.950;5.346;2023-05-02T12:40:35;18.30;51.20
33903;DHT22;20194;50.950;5.346;2023-05-02T12:43:02;18.00;99.90
33903;DHT22;20194;50.950;5.346;2023-05-02T12:45:29;18.20;1.00
33903;DHT22;20194;50.950;5.346;2023-05-02T12:48:02;18.20;4.90
33903;DHT22;20194;50.950;5.346;2023-05-02T12:50:41;18.60;99.90
33903;DHT22;20194;50.950;5.346;2023-05-02T12:53:08;19.00;99.90
33903;DHT22;20194;50.950;5.346;2023-05-02T12:55:33;18.90;1.00
33903;DHT22;20194;50.950;5.346;2023-05-02T12:58:04;19.00;1.00
33903;DHT22;20194;50.950;5.346;2023-05-02T13:00:32;19.00;1.00
33903;DHT22;20194;50.950;5.346;2023-05-02T13:02:59;18.60;99.90
33903;DHT22;20194;50.950;5.346;2023-05-02T13:05:24;18.70;99.90
33903;DHT22;20194;50.950;5.346;2023-05-02T13:07:50;18.60;99.90
33903;DHT22;20194;50.950;5.346;2023-05-02T13:10:16;18.30;27.10
33903;DHT22;20194;50.950;5.346;2023-05-02T13:12:43;18.30;99.90
33903;DHT22;20194;50.950;5.346;2023-05-02T13:15:10;18.40;99.90
33903;DHT22;20194;50.950;5.346;2023-05-02T13:17:35;18.40;1.00
33903;DHT22;20194;50.950;5.346;2023-05-02T13:20:01;18.70;99.90
33903;DHT22;20194;50.950;5.346;2023-05-02T13:22:27;18.70;1.00
33903;DHT22;20194;50.950;5.346;2023-05-02T13:24:53;18.60;99.90
33903;DHT22;20194;50.950;5.346;2023-05-02T13:27:22;18.50;1.00
33903;DHT22;20194;50.950;5.346;2023-05-02T13:29:48;18.30;1.00
33903;DHT22;20194;50.950;5.346;2023-05-02T13:32:14;18.00;1.00
33903;DHT22;20194;50.950;5.346;2023-05-02T13:34:41;17.90;99.90
33903;DHT22;20194;50.950;5.346;2023-05-02T13:37:07;17.90;43.30
33903;DHT22;20194;50.950;5.346;2023-05-02T13:39:32;17.90;99.90
33903;DHT22;20194;50.950;5.346;2023-05-02T13:41:58;18.00;1.00
33903;DHT22;20194;50.950;5.346;2023-05-02T13:44:24;18.20;1.00
33903;DHT22;20194;50.950;5.346;2023-05-02T13:46:50;18.10;99.90
33903;DHT22;20194;50.950;5.346;2023-05-02T13:49:15;18.20;1.00
33903;DHT22;20194;50.950;5.346;2023-05-02T13:51:41;18.10;52.10
33903;DHT22;20194;50.950;5.346;2023-05-02T13:54:07;18.30;99.90
33903;DHT22;20194;50.950;5.346;2023-05-02T13:56:33;18.40;1.00
33903;DHT22;20194;50.950;5.346;2023-05-02T13:58:58;18.30;1.00
33903;DHT22;20194;50.950;5.346;2023-05-02T14:01:24;18.30;1.00
33903;DHT22;20194;50.950;5.346;2023-05-02T14:03:53;18.10;1.00
33903;DHT22;20194;50.950;5.346;2023-05-02T14:06:19;18.00;99.90
33903;DHT22;20194;50.950;5.346;2023-05-02T14:08:44;18.00;99.90
33903;DHT22;20194;50.950;5.346;2023-05-02T14:11:10;18.10;99.90
33903;DHT22;20194;50.950;5.346;2023-05-02T14:13:36;18.30;99.90
33903;DHT22;20194;50.950;5.346;2023-05-02T14:16:02;18.50;99.90
33903;DHT22;20194;50.950;5.346;2023-05-02T14:18:28;18.70;1.00
33903;DHT22;20194;50.950;5.346;2023-05-02T14:20:54;18.60;1.00
33903;DHT22;20194;50.950;5.346;2023-05-02T14:23:24;18.70;99.90
33903;DHT22;20194;50.950;5.346;2023-05-02T14:25:50;18.70;99.90
33903;DHT22;20194;50.950;5.346;2023-05-02T14:28:16;18.70;1.00
33903;DHT22;20194;50.950;5.346;2023-05-02T14:30:41;18.50;99.90
33903;DHT22;20194;50.950;5.346;2023-05-02T14:33:08;18.10;1.00
33903;DHT22;20194;50.950;5.346;2023-05-02T14:35:33;18.00;1.00
33903;DHT22;20194;50.950;5.346;2023-05-02T14:37:59;18.00;99.90
33903;DHT22;20194;50.950;5.346;2023-05-02T14:40:25;18.10;21.30
33903;DHT22;20194;50.950;5.346;2023-05-02T14:42:51;18.40;99.90
33903;DHT22;20194;50.950;5.346;2023-05-02T14:45:16;18.10;99.90
33903;DHT22;20194;50.950;5.346;2023-05-02T14:47:42;17.90;37.50
33903;DHT22;20194;50.950;5.346;2023-05-02T14:50:08;17.70;1.00
33903;DHT22;20194;50.950;5.346;2023-05-02T14:52:34;17.70;1.00
33903;DHT22;20194;50.950;5.346;2023-05-02T14:55:00;17.90;1.00
33903;DHT22;20194;50.950;5.346;2023-05-02T14:57:26;18.00;1.00
33903;DHT22;20194;50.950;5.346;2023-05-02T14:59:52;18.10;48.40
33903;DHT22;20194;50.950;5.346;2023-05-02T15:02:18;18.20;1.00
33903;DHT22;20194;50.950;5.346;2023-05-02T15:04:44;18.20;1.00
33903;DHT22;20194;50.950;5.346;2023-05-02T15:07:10;18.20;99.90
33903;DHT22;20194;50.950;5.346;2023-05-02T15:09:36;18.20;99.90
33903;DHT22;20194;50.950;5.346;2023-05-02T15:12:01;18.30;71.80
33903;DHT22;20194;50.950;5.346;2023-05-02T15:14:28;18.10;1.00
33903;DHT22;20194;50.950;5.346;2023-05-02T15:16:54;17.90;99.90
33903;DHT22;20194;50.950;5.346;2023-05-02T15:19:19;17.80;1.00
33903;DHT22;20194;50.950;5.346;2023-05-02T15:21:49;18.00;1.00
33903;DHT22;20194;50.950;5.346;2023-05-02T15:24:18;18.20;99.90
33903;DHT22;20194;50.950;5.346;2023-05-02T15:26:43;18.30;1.00
33903;DHT22;20194;50.950;5.346;2023-05-02T15:29:09;18.40;1.00
33903;DHT22;20194;50.950;5.346;2023-05-02T15:31:35;18.20;99.90
33903;DHT22;20194;50.950;5.346;2023-05-02T15:34:02;18.20;1.00
33903;DHT22;20194;50.950;5.346;2023-05-02T15:36:28;18.10;1.00
33903;DHT22;20194;50.950;5.346;2023-05-02T15:38:55;18.30;99.90
33903;DHT22;20194;50.950;5.346;2023-05-02T15:41:21;18.30;99.90
33903;DHT22;20194;50.950;5.346;2023-05-02T15:43:48;18.10;99.90
33903;DHT22;20194;50.950;5.346;2023-05-02T15:46:14;18.20;1.00
33903;DHT22;20194;50.950;5.346;2023-05-02T15:48:40;18.10;4.00
33903;DHT22;20194;50.950;5.346;2023-05-02T15:51:06;17.80;99.90
33903;DHT22;20194;50.950;5.346;2023-05-02T15:53:33;17.70;1.00
33903;DHT22;20194;50.950;5.346;2023-05-02T15:56:12;17.70;99.90
33903;DHT22;20194;50.950;5.346;2023-05-02T15:58:38;17.60;1.00
33903;DHT22;20194;50.950;5.346;2023-05-02T16:01:04;17.60;1.00
33903;DHT22;20194;50.950;5.346;2023-05-02T16:03:30;17.30;32.80
33903;DHT22;20194;50.950;5.346;2023-05-02T16:05:57;17.30;99.90
33903;DHT22;20194;50.950;5.346;2023-05-02T16:08:26;17.30;1.00
33903;DHT22;20194;50.950;5.346;2023-05-02T16:10:52;17.30;99.90
33903;DHT22;20194;50.950;5.346;2023-05-02T16:13:18;17.30;99.90
33903;DHT22;20194;50.950;5.346;2023-05-02T16:15:44;17.20;99.90